Time;durP1;ratioP1;P1;durP2;ratioP2;P2;SDS_P1;SDS_P2;PMS_P1;PMS_P2;Temp;Humidity;BMP_temperature;BMP_pressure;BME280_temperature;BME280_humidity;BME280_pressure;Samples;Min_cycle;Max_cycle;Signal;HPM_P1;HPM_P2
2022/03/22 00:00:35;;;;;;;27.85;22.65;;;10.20;99.90;;;;;;5033610;28;20179;-60
2022/03/22 00:03:00;;;;;;;26.48;21.80;;;10.20;99.90;;;;;;5034690;28;20645;-60
2022/03/22 00:05:26;;;;;;;24.80;21.10;;;10.10;99.90;;;;;;5034832;28;20230;-59
2022/03/22 00:07:52;;;;;;;24.55;21.58;;;10.10;99.90;;;;;;5034465;28;20250;-59
2022/03/22 00:10:18;;;;;;;25.65;20.92;;;10.20;99.90;;;;;;5034463;28;20226;-60
2022/03/22 00:12:44;;;;;;;25.63;21.42;;;10.30;99.90;;;;;;5033015;28;20274;-60
2022/03/22 00:15:11;;;;;;;24.00;21.13;;;10.30;99.90;;;;;;5033225;28;20267;-60
2022/03/22 00:17:37;;;;;;;23.80;21.08;;;10.20;99.90;;;;;;5034409;28;20225;-60
2022/03/22 00:20:05;;;;;;;25.77;21.38;;;10.10;99.90;;;;;;5034284;28;20179;-60
2022/03/22 00:22:31;;;;;;;24.92;22.02;;;10.00;99.90;;;;;;5034098;28;20211;-60
2022/03/22 00:24:56;;;;;;;26.08;21.92;;;9.90;99.90;;;;;;5032987;28;20189;-59
2022/03/22 00:27:22;;;;;;;24.48;21.27;;;9.90;99.90;;;;;;5031861;28;20696;-60
2022/03/22 00:29:48;;;;;;;24.02;20.98;;;9.90;99.90;;;;;;5034134;28;20176;-60
2022/03/22 00:32:14;;;;;;;23.80;20.38;;;9.90;99.90;;;;;;5034044;28;20180;-60
2022/03/22 00:34:44;;;;;;;24.70;20.40;;;10.10;99.90;;;;;;5034055;28;20176;-60
2022/03/22 00:37:14;;;;;;;26.13;21.52;;;10.20;99.90;;;;;;5033928;28;20176;-60
2022/03/22 00:39:42;;;;;;;22.42;19.90;;;10.20;99.90;;;;;;5033747;28;20698;-60
2022/03/22 00:42:08;;;;;;;27.88;20.38;;;10.30;99.90;;;;;;5033900;28;20215;-60
2022/03/22 00:44:35;;;;;;;26.20;21.42;;;10.40;99.90;;;;;;5033803;28;20188;-60
2022/03/22 00:47:02;;;;;;;23.88;20.63;;;10.60;99.90;;;;;;5033902;28;20267;-60
2022/03/22 00:49:28;;;;;;;22.58;20.23;;;10.60;99.90;;;;;;5033722;28;20622;-60
2022/03/22 00:51:53;;;;;;;23.52;19.67;;;10.60;99.90;;;;;;5033776;28;20190;-60
2022/03/22 00:54:20;;;;;;;22.92;20.42;;;10.50;99.90;;;;;;5033534;28;20172;-60
2022/03/22 00:56:45;;;;;;;24.85;20.63;;;10.50;99.90;;;;;;5033721;28;20194;-60
2022/03/22 01:01:55;;;;;;;25.85;20.50;;;10.40;99.90;;;;;;5033445;28;20230;-60
2022/03/22 01:04:24;;;;;;;24.48;21.55;;;10.40;99.90;;;;;;5032313;28;20538;-60
2022/03/22 01:06:50;;;;;;;24.20;20.60;;;10.40;99.90;;;;;;5033383;28;20176;-59
2022/03/22 01:09:16;;;;;;;24.00;20.58;;;10.40;99.90;;;;;;5033624;28;20275;-59
2022/03/22 01:11:42;;;;;;;24.70;21.00;;;10.40;99.90;;;;;;5033573;28;20684;-59
2022/03/22 01:14:08;;;;;;;22.90;19.92;;;10.40;99.90;;;;;;5033478;28;20527;-60
2022/03/22 01:16:34;;;;;;;23.27;20.80;;;10.30;99.90;;;;;;5033365;28;20184;-59
2022/03/22 01:19:00;;;;;;;22.85;20.40;;;10.30;99.90;;;;;;5033323;28;20187;-59
2022/03/22 01:21:26;;;;;;;24.55;20.08;;;10.20;99.90;;;;;;5033084;28;20199;-60
2022/03/22 01:23:52;;;;;;;24.38;20.70;;;10.30;99.90;;;;;;5033553;28;20204;-60
2022/03/22 01:26:19;;;;;;;25.20;21.10;;;10.30;99.90;;;;;;5033196;28;20698;-60
2022/03/22 01:28:46;;;;;;;25.30;20.77;;;10.30;99.90;;;;;;5033176;28;20184;-60
2022/03/22 01:31:12;;;;;;;22.80;20.40;;;10.20;99.90;;;;;;5033179;28;20214;-60
2022/03/22 01:33:37;;;;;;;24.58;20.73;;;10.20;99.90;;;;;;5033174;28;20578;-60
2022/03/22 01:36:03;;;;;;;23.30;20.00;;;10.20;99.90;;;;;;5033047;28;20557;-60
2022/03/22 01:38:29;;;;;;;22.45;20.05;;;10.20;99.90;;;;;;5035345;28;20211;-60
2022/03/22 01:40:54;;;;;;;23.42;19.95;;;10.20;99.90;;;;;;5037321;28;20314;-60
2022/03/22 01:43:20;;;;;;;23.10;20.60;;;10.30;99.90;;;;;;5037222;28;20218;-60
2022/03/22 01:45:48;;;;;;;24.42;21.05;;;10.30;99.90;;;;;;5037048;28;20195;-60
2022/03/22 01:48:14;;;;;;;22.55;20.25;;;10.20;99.90;;;;;;5037138;28;20263;-60
2022/03/22 01:50:41;;;;;;;24.42;20.40;;;10.20;99.90;;;;;;5036972;28;20326;-60
2022/03/22 01:53:09;;;;;;;23.60;20.85;;;10.10;99.90;;;;;;5037153;28;20269;-60
2022/03/22 01:55:35;;;;;;;24.05;21.08;;;10.10;99.90;;;;;;5037068;28;20198;-60
2022/03/22 01:58:00;;;;;;;22.75;20.10;;;10.10;99.90;;;;;;5037043;28;20176;-60
2022/03/22 02:00:26;;;;;;;22.60;20.30;;;10.00;99.90;;;;;;5036821;28;20176;-59
2022/03/22 02:05:51;;;;;;;22.35;19.95;;;9.90;99.90;;;;;;5037160;28;20194;-59
2022/03/22 02:08:19;;;;;;;22.10;19.83;;;9.80;99.90;;;;;;5036893;28;20195;-59
2022/03/22 02:10:45;;;;;;;22.38;20.08;;;9.80;99.90;;;;;;5036705;28;20214;-59
2022/03/22 02:13:12;;;;;;;22.98;19.70;;;9.70;99.90;;;;;;5036596;28;20536;-60
2022/03/22 02:15:37;;;;;;;22.27;19.92;;;9.70;99.90;;;;;;5036405;28;20183;-59
2022/03/22 02:18:04;;;;;;;23.83;21.17;;;9.60;99.90;;;;;;5036489;28;20171;-60
2022/03/22 02:20:30;;;;;;;23.17;20.77;;;9.60;99.90;;;;;;5035282;28;20176;-60
2022/03/22 02:23:05;;;;;;;21.95;19.58;;;9.50;99.90;;;;;;5036591;28;20176;-60
2022/03/22 02:25:35;;;;;;;21.65;19.33;;;9.50;99.90;;;;;;5035235;28;20171;-60
2022/03/22 02:28:03;;;;;;;23.08;20.58;;;9.40;99.90;;;;;;5036232;28;20180;-60
2022/03/22 02:30:29;;;;;;;23.25;20.58;;;9.40;99.90;;;;;;5036521;28;20199;-59
2022/03/22 02:32:59;;;;;;;23.15;20.52;;;9.40;99.90;;;;;;5036431;28;20180;-60
2022/03/22 02:35:25;;;;;;;24.45;20.15;;;9.40;99.90;;;;;;5036432;28;20183;-60
2022/03/22 02:37:51;;;;;;;24.27;21.30;;;9.40;99.90;;;;;;5036224;28;20172;-59
2022/03/22 02:40:18;;;;;;;23.65;20.80;;;9.40;99.90;;;;;;5036231;28;20168;-60
2022/03/22 02:42:50;;;;;;;24.08;20.55;;;9.40;99.90;;;;;;5035977;28;20231;-59
2022/03/22 02:45:18;;;;;;;22.55;20.13;;;9.40;99.90;;;;;;5035913;28;20227;-59
2022/03/22 02:47:44;;;;;;;22.35;20.10;;;9.30;99.90;;;;;;5036073;28;20172;-60
2022/03/22 02:50:11;;;;;;;24.55;20.58;;;9.30;99.90;;;;;;5035044;28;20179;-59
2022/03/22 02:52:38;;;;;;;22.80;20.25;;;9.30;99.90;;;;;;5035963;28;20192;-59
2022/03/22 02:55:06;;;;;;;23.40;20.73;;;9.40;99.90;;;;;;5035847;28;20179;-60
2022/03/22 02:57:35;;;;;;;22.92;20.33;;;9.50;99.90;;;;;;5034543;28;20530;-60
2022/03/22 03:00:03;;;;;;;23.23;20.83;;;9.40;99.90;;;;;;5035793;28;20545;-59
2022/03/22 03:02:29;;;;;;;23.48;20.73;;;9.40;99.90;;;;;;5035682;28;20579;-60
2022/03/22 03:04:54;;;;;;;21.90;19.52;;;9.40;99.90;;;;;;5035814;28;20216;-59
2022/03/22 03:07:20;;;;;;;24.90;20.38;;;9.50;99.90;;;;;;5034490;28;20269;-60
2022/03/22 03:09:46;;;;;;;21.38;19.08;;;9.50;99.90;;;;;;5035610;28;20184;-59
2022/03/22 03:12:11;;;;;;;21.02;18.90;;;9.40;99.90;;;;;;5035770;28;20183;-60
2022/03/22 03:14:40;;;;;;;20.35;18.20;;;9.40;99.90;;;;;;5035578;28;20178;-59
2022/03/22 03:17:06;;;;;;;21.95;19.33;;;9.40;99.90;;;;;;5035599;28;20267;-59
2022/03/22 03:19:31;;;;;;;21.42;18.75;;;9.30;99.90;;;;;;5035513;28;20199;-60
2022/03/22 03:21:57;;;;;;;23.90;19.85;;;9.30;99.90;;;;;;5035331;28;20199;-59
2022/03/22 03:24:23;;;;;;;20.85;18.40;;;9.30;99.90;;;;;;5035209;28;20188;-60
2022/03/22 03:26:49;;;;;;;21.40;19.20;;;9.30;99.90;;;;;;5034265;28;20262;-60
2022/03/22 03:29:15;;;;;;;21.75;19.50;;;9.20;99.90;;;;;;5035388;28;20219;-60
2022/03/22 03:31:41;;;;;;;20.80;18.63;;;9.20;99.90;;;;;;5035434;28;20184;-60
2022/03/22 03:34:06;;;;;;;20.73;18.20;;;9.30;99.90;;;;;;5035249;28;20263;-60
2022/03/22 03:36:32;;;;;;;21.08;18.75;;;9.30;99.90;;;;;;5035086;28;20180;-60
2022/03/22 03:38:59;;;;;;;20.17;18.10;;;9.30;99.90;;;;;;5034991;28;20204;-60
2022/03/22 03:47:07;;;;;;;20.90;18.80;;;9.20;99.90;;;;;;5034971;28;20195;-60
2022/03/22 03:49:37;;;;;;;20.13;18.05;;;9.20;99.90;;;;;;5035097;28;20180;-60
2022/03/22 03:52:05;;;;;;;23.17;18.40;;;9.20;99.90;;;;;;5035042;28;20180;-59
2022/03/22 03:54:31;;;;;;;20.25;18.15;;;9.20;99.90;;;;;;5034777;28;20271;-59
2022/03/22 03:56:57;;;;;;;20.10;18.08;;;9.20;99.90;;;;;;5034786;28;20291;-59
2022/03/22 03:59:23;;;;;;;18.63;16.73;;;9.20;99.90;;;;;;5034709;28;20176;-59
2022/03/22 04:01:49;;;;;;;20.00;17.90;;;9.20;99.90;;;;;;5034225;28;20619;-59
2022/03/22 04:04:15;;;;;;;23.50;17.50;;;9.20;99.90;;;;;;5034715;28;20235;-60
2022/03/22 04:06:40;;;;;;;20.10;18.02;;;9.10;99.90;;;;;;5034532;28;20204;-60
2022/03/22 04:09:06;;;;;;;20.52;18.38;;;9.10;99.90;;;;;;5034455;28;20637;-60
2022/03/22 04:11:32;;;;;;;19.80;17.13;;;9.10;99.90;;;;;;5034477;28;20192;-59
2022/03/22 04:13:57;;;;;;;20.02;17.45;;;9.10;99.90;;;;;;5034425;28;20180;-60
2022/03/22 04:16:23;;;;;;;21.40;17.98;;;9.10;99.90;;;;;;5034688;28;20546;-60
2022/03/22 04:18:50;;;;;;;19.33;17.30;;;9.10;99.90;;;;;;5034318;28;20202;-59
2022/03/22 04:21:16;;;;;;;19.48;16.77;;;9.10;99.90;;;;;;5034361;28;20693;-60
2022/03/22 04:23:42;;;;;;;20.23;17.30;;;9.00;99.90;;;;;;5034269;28;20180;-60
2022/03/22 04:26:07;;;;;;;19.67;17.08;;;9.00;99.90;;;;;;5034190;28;20176;-59
2022/03/22 04:34:02;;;;;;;20.15;18.00;;;9.00;99.90;;;;;;5034005;28;20187;-59
2022/03/22 04:36:30;;;;;;;20.48;17.73;;;9.10;99.90;;;;;;5033994;28;20172;-60
2022/03/22 04:38:56;;;;;;;21.83;18.83;;;9.10;99.90;;;;;;5033843;28;20626;-60
2022/03/22 04:41:23;;;;;;;21.33;18.70;;;9.00;99.90;;;;;;5033728;28;20210;-60
2022/03/22 04:43:49;;;;;;;19.65;17.50;;;9.10;99.90;;;;;;5034010;28;20180;-59
2022/03/22 04:46:18;;;;;;;20.58;18.08;;;9.10;99.90;;;;;;5033925;28;20196;-59
2022/03/22 04:48:47;;;;;;;20.67;17.33;;;9.10;99.90;;;;;;5033842;28;20180;-60
2022/03/22 04:56:48;;;;;;;21.58;17.92;;;9.10;99.90;;;;;;5034030;28;20194;-59
2022/03/22 04:59:19;;;;;;;19.17;17.17;;;9.00;99.90;;;;;;5032625;28;20267;-60
2022/03/22 05:01:45;;;;;;;20.15;17.52;;;9.00;99.90;;;;;;5033487;28;20268;-59
2022/03/22 05:04:11;;;;;;;21.52;17.15;;;9.00;99.90;;;;;;5033455;28;20194;-59
2022/03/22 05:06:41;;;;;;;25.52;18.00;;;9.00;99.90;;;;;;5033945;28;20233;-60
2022/03/22 05:09:07;;;;;;;21.73;17.23;;;9.10;99.90;;;;;;5033405;28;20168;-59
2022/03/22 05:11:33;;;;;;;18.70;16.73;;;9.10;99.90;;;;;;5033567;28;20176;-59
2022/03/22 05:14:00;;;;;;;20.02;16.67;;;9.10;99.90;;;;;;5033025;28;20225;-59
2022/03/22 05:16:25;;;;;;;19.15;16.83;;;9.10;99.90;;;;;;5032117;28;20265;-59
2022/03/22 05:18:52;;;;;;;18.98;16.98;;;9.00;99.90;;;;;;5033272;28;20180;-60
2022/03/22 05:21:18;;;;;;;19.17;16.73;;;9.00;99.90;;;;;;5033371;28;20218;-60
2022/03/22 05:23:45;;;;;;;20.67;16.55;;;9.00;99.90;;;;;;5033675;28;20180;-60
2022/03/22 05:26:13;;;;;;;20.42;17.30;;;8.90;99.90;;;;;;5033397;28;20598;-59
2022/03/22 05:28:40;;;;;;;19.50;17.48;;;9.00;99.90;;;;;;5033256;28;20603;-59
2022/03/22 05:31:09;;;;;;;19.83;16.73;;;8.90;99.90;;;;;;5033166;28;20179;-60
2022/03/22 05:33:36;;;;;;;19.50;17.50;;;8.90;99.90;;;;;;5033197;28;20176;-60
2022/03/22 05:36:03;;;;;;;18.75;16.75;;;8.90;99.90;;;;;;5033324;28;20176;-59
2022/03/22 05:38:29;;;;;;;23.13;18.33;;;8.90;99.90;;;;;;5033145;28;20187;-59
2022/03/22 05:40:56;;;;;;;20.30;16.95;;;8.90;99.90;;;;;;5033116;28;20210;-61
2022/03/22 05:43:22;;;;;;;20.92;17.65;;;8.90;99.90;;;;;;5032813;28;20176;-60
2022/03/22 05:45:51;;;;;;;18.58;16.60;;;8.90;99.90;;;;;;5032142;28;20187;-60
2022/03/22 05:48:18;;;;;;;17.95;16.05;;;8.80;99.90;;;;;;5032911;28;20625;-60
2022/03/22 05:50:43;;;;;;;20.00;16.20;;;8.80;99.90;;;;;;5033181;28;20171;-60
2022/03/22 05:53:12;;;;;;;18.38;16.48;;;8.90;99.90;;;;;;5033081;28;20262;-59
2022/03/22 05:55:39;;;;;;;17.80;15.95;;;8.80;99.90;;;;;;5032980;28;20222;-60
2022/03/22 05:58:06;;;;;;;19.70;16.10;;;8.80;99.90;;;;;;5032921;28;20565;-60
2022/03/22 06:00:31;;;;;;;17.95;15.68;;;8.60;99.90;;;;;;5032864;28;20180;-60
2022/03/22 06:02:57;;;;;;;17.92;16.02;;;8.60;99.90;;;;;;5032521;28;20224;-59
2022/03/22 06:05:23;;;;;;;17.90;16.00;;;8.70;99.90;;;;;;5032484;28;20545;-58
2022/03/22 06:07:49;;;;;;;19.15;16.42;;;8.70;99.90;;;;;;5032320;28;20180;-60
2022/03/22 06:10:14;;;;;;;17.77;15.90;;;8.70;99.90;;;;;;5032881;28;20183;-59
2022/03/22 06:12:44;;;;;;;19.23;15.98;;;8.70;99.90;;;;;;5032796;28;20183;-61
2022/03/22 06:15:14;;;;;;;19.33;17.38;;;8.80;99.90;;;;;;5032785;28;20179;-60
2022/03/22 06:17:40;;;;;;;19.23;17.23;;;8.80;99.90;;;;;;5031697;28;20271;-60
2022/03/22 06:20:07;;;;;;;18.05;16.20;;;8.80;99.90;;;;;;5031725;28;20180;-58
2022/03/22 06:22:33;;;;;;;21.60;16.65;;;8.90;99.90;;;;;;5032710;28;20599;-59
2022/03/22 06:24:58;;;;;;;19.98;16.42;;;8.90;99.90;;;;;;5035316;28;20234;-60
2022/03/22 06:27:24;;;;;;;22.75;19.75;;;8.90;99.90;;;;;;5036419;28;20230;-60
2022/03/22 06:29:50;;;;;;;19.42;17.35;;;8.90;99.90;;;;;;5036293;28;20176;-60
2022/03/22 06:32:15;;;;;;;18.88;16.77;;;9.00;99.90;;;;;;5036522;28;20652;-60
2022/03/22 06:34:41;;;;;;;19.73;16.77;;;9.10;99.90;;;;;;5036490;28;20183;-60
2022/03/22 06:37:06;;;;;;;22.15;17.13;;;9.20;99.90;;;;;;5036575;28;20285;-61
2022/03/22 06:39:32;;;;;;;20.48;16.48;;;9.30;99.90;;;;;;5036182;28;20637;-60
2022/03/22 06:41:58;;;;;;;19.77;16.63;;;9.30;99.90;;;;;;5036062;28;20728;-58
2022/03/22 06:44:24;;;;;;;19.02;16.55;;;9.40;99.90;;;;;;5035712;28;20250;-58
2022/03/22 06:46:49;;;;;;;21.02;16.65;;;9.40;99.90;;;;;;5036148;28;20271;-59
2022/03/22 06:49:15;;;;;;;21.30;17.13;;;9.50;99.90;;;;;;5018426;28;20318;-60
2022/03/22 06:51:40;;;;;;;23.88;17.58;;;9.60;99.90;;;;;;5036018;28;20599;-60
2022/03/22 06:54:06;;;;;;;19.83;16.58;;;9.60;99.90;;;;;;5035946;28;20179;-59
2022/03/22 06:56:32;;;;;;;20.98;16.00;;;9.60;99.90;;;;;;5035873;28;20226;-60
2022/03/22 06:58:58;;;;;;;21.10;17.00;;;9.70;99.90;;;;;;5036004;28;20172;-58
2022/03/22 07:01:24;;;;;;;21.75;16.50;;;9.70;99.90;;;;;;5035759;28;20215;-59
2022/03/22 07:03:49;;;;;;;19.60;15.57;;;9.70;99.90;;;;;;5035906;28;20187;-59
2022/03/22 07:06:15;;;;;;;24.15;16.42;;;9.80;99.90;;;;;;5035894;28;20567;-59
2022/03/22 07:08:41;;;;;;;19.50;15.80;;;9.80;99.90;;;;;;5035737;28;20598;-59
2022/03/22 07:13:52;;;;;;;18.40;14.65;;;10.00;99.90;;;;;;5035606;28;20230;-59
2022/03/22 07:16:19;;;;;;;22.35;16.35;;;10.10;99.90;;;;;;5035704;28;20176;-59
2022/03/22 07:18:44;;;;;;;22.33;15.52;;;10.20;99.90;;;;;;5035573;28;20230;-59
2022/03/22 07:21:10;;;;;;;19.58;15.07;;;10.20;99.90;;;;;;5035635;28;20656;-59
2022/03/22 07:23:36;;;;;;;17.75;14.98;;;10.20;99.90;;;;;;5034293;28;20183;-60
2022/03/22 07:26:02;;;;;;;20.08;15.02;;;10.30;99.90;;;;;;5035138;28;20515;-60
2022/03/22 07:28:28;;;;;;;18.95;15.25;;;10.40;99.90;;;;;;5034534;28;20168;-60
2022/03/22 07:30:53;;;;;;;18.00;15.23;;;10.50;99.90;;;;;;5035729;28;20656;-60
2022/03/22 07:33:19;;;;;;;21.38;15.43;;;10.60;99.90;;;;;;5035358;28;20514;-60
2022/03/22 07:35:44;;;;;;;19.92;15.60;;;10.60;99.90;;;;;;5034626;28;20176;-60
2022/03/22 07:38:10;;;;;;;22.95;15.90;;;10.60;99.90;;;;;;5035101;28;20183;-59
2022/03/22 07:40:36;;;;;;;19.80;15.80;;;10.80;99.90;;;;;;5034982;28;20180;-60
2022/03/22 07:43:01;;;;;;;21.75;16.02;;;10.90;99.90;;;;;;5035212;28;20216;-60
2022/03/22 07:45:27;;;;;;;17.77;15.20;;;11.00;99.90;;;;;;5034996;28;20268;-60
2022/03/22 07:47:53;;;;;;;17.55;14.90;;;11.10;99.90;;;;;;5035038;28;20187;-60
2022/03/22 07:53:06;;;;;;;20.05;15.57;;;11.10;99.90;;;;;;5035122;28;20325;-60
2022/03/22 07:55:37;;;;;;;16.42;14.68;;;11.20;99.90;;;;;;5035000;28;20707;-60
2022/03/22 07:58:05;;;;;;;17.05;15.25;;;11.40;99.90;;;;;;5035207;28;20529;-60
2022/03/22 08:00:31;;;;;;;23.20;15.25;;;11.60;99.90;;;;;;5034794;28;20262;-60
2022/03/22 08:03:00;;;;;;;20.80;15.48;;;11.80;99.90;;;;;;5034580;28;20208;-60
2022/03/22 08:05:27;;;;;;;19.80;15.45;;;11.90;99.90;;;;;;5034499;28;20176;-60
2022/03/22 08:07:56;;;;;;;17.98;14.65;;;12.00;99.90;;;;;;5034580;28;20176;-60
2022/03/22 08:10:22;;;;;;;21.73;15.25;;;12.10;99.90;;;;;;5034652;28;20621;-60
2022/03/22 08:12:49;;;;;;;19.42;14.52;;;12.20;99.90;;;;;;5034520;28;20180;-60
2022/03/22 08:15:16;;;;;;;16.83;14.20;;;12.40;99.90;;;;;;5034727;28;20190;-60
2022/03/22 08:17:42;;;;;;;19.02;14.00;;;12.60;99.90;;;;;;5034241;28;20255;-58
2022/03/22 08:20:10;;;;;;;21.13;15.45;;;12.70;99.90;;;;;;5034126;28;20262;-60
2022/03/22 08:23:09;;;;;;;20.15;14.82;;;12.90;99.90;;;;;;5034293;28;20212;-57
2022/03/22 08:25:43;;;;;;;19.35;14.23;;;13.00;99.90;;;;;;5011728;28;20395;-59
2022/03/22 08:28:11;;;;;;;18.88;13.80;;;13.00;99.90;;;;;;5034278;28;20259;-58
2022/03/22 08:30:38;;;;;;;21.95;14.55;;;13.10;99.90;;;;;;5033955;28;20180;-59
2022/03/22 08:33:09;;;;;;;20.75;15.40;;;13.10;99.90;;;;;;5034195;28;20184;-59
2022/03/22 08:35:41;;;;;;;18.10;14.07;;;13.30;99.90;;;;;;5034162;28;20179;-59
2022/03/22 08:38:08;;;;;;;20.33;14.55;;;13.40;99.90;;;;;;5034188;28;20600;-59
2022/03/22 08:40:33;;;;;;;27.67;14.88;;;13.50;99.90;;;;;;5033870;28;20172;-59
2022/03/22 08:42:59;;;;;;;22.90;15.40;;;13.70;99.90;;;;;;5033767;28;20207;-59
2022/03/22 08:45:27;;;;;;;19.63;13.98;;;13.80;99.90;;;;;;5033899;28;20207;-59
2022/03/22 08:47:54;;;;;;;20.90;15.07;;;14.00;99.90;;;;;;5033040;28;20219;-59
2022/03/22 08:50:21;;;;;;;22.02;14.82;;;14.10;99.90;;;;;;5033845;28;20168;-59
2022/03/22 08:52:49;;;;;;;23.30;14.70;;;14.30;99.90;;;;;;5033733;28;20194;-59
2022/03/22 08:55:17;;;;;;;21.15;14.48;;;14.40;99.90;;;;;;5033616;28;20263;-59
2022/03/22 08:57:44;;;;;;;17.90;14.90;;;14.60;99.90;;;;;;5033655;28;20187;-58
2022/03/22 09:00:11;;;;;;;20.08;14.57;;;14.70;99.90;;;;;;5033763;28;20179;-58
2022/03/22 09:02:39;;;;;;;19.80;14.25;;;14.90;99.90;;;;;;5033372;28;20746;-58
2022/03/22 09:07:51;;;;;;;17.77;13.60;;;15.20;99.90;;;;;;5033758;28;20194;-59
2022/03/22 09:10:19;;;;;;;18.08;14.07;;;15.40;99.90;;;;;;5033447;28;20256;-59
2022/03/22 09:12:45;;;;;;;22.58;14.48;;;15.60;99.90;;;;;;5033506;28;20188;-58
2022/03/22 09:15:11;;;;;;;17.67;13.98;;;15.70;99.90;;;;;;5033600;28;20651;-58
2022/03/22 09:17:37;;;;;;;20.45;13.77;;;15.80;99.90;;;;;;5033355;28;20180;-59
2022/03/22 09:20:05;;;;;;;16.35;12.63;;;15.90;99.40;;;;;;5033313;28;20176;-58
2022/03/22 09:22:31;;;;;;;20.00;12.98;;;16.10;98.90;;;;;;5033244;28;20196;-59
2022/03/22 09:24:57;;;;;;;17.67;12.88;;;16.20;98.40;;;;;;5033379;28;20271;-59
2022/03/22 09:27:24;;;;;;;16.17;13.57;;;16.30;97.60;;;;;;5033385;28;20184;-58
2022/03/22 09:29:49;;;;;;;20.25;14.00;;;16.30;98.00;;;;;;5033522;28;20226;-59
2022/03/22 09:32:15;;;;;;;18.30;13.43;;;16.30;97.00;;;;;;5033419;28;20183;-58
2022/03/22 09:34:41;;;;;;;18.35;13.20;;;16.50;97.40;;;;;;5033187;28;20173;-59
2022/03/22 09:37:07;;;;;;;18.40;13.55;;;16.50;97.70;;;;;;5033019;28;20226;-58
2022/03/22 09:39:34;;;;;;;17.88;13.05;;;16.60;97.00;;;;;;5033126;28;20183;-58
2022/03/22 09:42:03;;;;;;;18.52;13.70;;;16.70;97.10;;;;;;5033236;28;20235;-59
2022/03/22 09:44:29;;;;;;;19.30;13.40;;;16.80;97.60;;;;;;5033072;28;20657;-58
2022/03/22 09:46:56;;;;;;;18.25;13.07;;;16.90;96.50;;;;;;5033142;28;20606;-59
2022/03/22 09:49:22;;;;;;;20.35;14.43;;;17.10;96.50;;;;;;5033007;28;20191;-58
2022/03/22 09:51:48;;;;;;;18.95;13.73;;;17.20;95.00;;;;;;5032847;28;20637;-59
2022/03/22 09:54:19;;;;;;;21.42;14.23;;;17.20;95.20;;;;;;5033093;28;20195;-59
2022/03/22 09:56:46;;;;;;;19.33;14.50;;;17.30;96.50;;;;;;5032870;28;20548;-59
2022/03/22 09:59:14;;;;;;;19.20;13.55;;;17.30;94.60;;;;;;5034533;28;20176;-59
2022/03/22 10:01:40;;;;;;;18.25;14.38;;;17.30;94.00;;;;;;5036906;28;20344;-59
2022/03/22 10:04:09;;;;;;;21.33;13.68;;;17.30;93.90;;;;;;5036913;28;20230;-59
2022/03/22 10:06:35;;;;;;;18.20;13.82;;;17.40;94.50;;;;;;5036794;28;20172;-57
2022/03/22 10:09:05;;;;;;;19.92;13.43;;;17.60;94.90;;;;;;5036936;28;20514;-58
2022/03/22 10:11:43;;;;;;;19.00;14.38;;;17.70;94.60;;;;;;5036778;28;20258;-59
2022/03/22 10:14:11;;;;;;;20.02;14.43;;;17.80;93.20;;;;;;5036683;28;20309;-59
2022/03/22 10:16:49;;;;;;;19.70;13.75;;;17.80;94.30;;;;;;5036523;28;20183;-59
2022/03/22 10:19:24;;;;;;;16.48;13.73;;;17.70;91.90;;;;;;5036743;28;20653;-58
2022/03/22 10:21:52;;;;;;;20.27;14.05;;;17.70;93.30;;;;;;5036621;28;20281;-58
2022/03/22 10:24:19;;;;;;;21.70;14.43;;;17.80;93.40;;;;;;5036475;28;20279;-58
2022/03/22 10:26:46;;;;;;;18.52;14.23;;;17.80;91.80;;;;;;5036495;28;20230;-59
2022/03/22 10:29:13;;;;;;;18.17;13.90;;;18.00;91.70;;;;;;5036293;28;20172;-59
2022/03/22 10:31:40;;;;;;;20.23;14.98;;;18.00;91.70;;;;;;5036249;28;20229;-58
2022/03/22 10:34:07;;;;;;;25.92;16.35;;;18.10;91.50;;;;;;5036412;28;20188;-58
2022/03/22 10:36:35;;;;;;;24.65;15.18;;;18.00;90.80;;;;;;5035245;28;20532;-59
2022/03/22 10:39:04;;;;;;;22.98;15.40;;;18.20;91.50;;;;;;5036450;28;20176;-59
2022/03/22 10:41:33;;;;;;;19.45;14.98;;;18.20;89.40;;;;;;5036350;28;20265;-58
2022/03/22 10:44:05;;;;;;;19.70;14.48;;;18.20;86.80;;;;;;5035972;28;20172;-59
2022/03/22 10:46:31;;;;;;;19.20;14.80;;;18.10;89.40;;;;;;5035941;28;20283;-58
2022/03/22 10:49:06;;;;;;;18.95;14.35;;;18.00;87.60;;;;;;5036342;28;20268;-58
2022/03/22 10:51:45;;;;;;;21.20;15.18;;;18.10;90.00;;;;;;5018608;28;20645;-58
2022/03/22 10:54:15;;;;;;;21.25;14.85;;;18.20;89.20;;;;;;5035896;28;20183;-58
2022/03/22 10:56:44;;;;;;;20.95;14.65;;;18.40;87.00;;;;;;5036129;28;20199;-59
2022/03/22 10:59:12;;;;;;;18.23;14.50;;;18.50;82.30;;;;;;5036024;28;20176;-58
2022/03/22 11:01:42;;;;;;;21.77;14.77;;;18.50;80.40;;;;;;5035779;28;20238;-59
2022/03/22 11:04:08;;;;;;;19.70;14.30;;;18.30;83.30;;;;;;5036003;28;20172;-60
2022/03/22 11:06:37;;;;;;;20.80;15.07;;;18.60;87.00;;;;;;5035826;28;20172;-59
2022/03/22 11:09:03;;;;;;;21.23;14.77;;;18.60;81.00;;;;;;5035537;28;20176;-59
2022/03/22 11:11:31;;;;;;;19.92;13.20;;;18.80;81.50;;;;;;5034893;28;20306;-59
2022/03/22 11:13:57;;;;;;;21.83;14.88;;;19.00;80.20;;;;;;5035707;28;20179;-59
2022/03/22 11:16:26;;;;;;;20.67;13.50;;;19.00;74.00;;;;;;5035444;28;20219;-59
2022/03/22 11:18:54;;;;;;;18.52;14.23;;;19.10;73.30;;;;;;5035638;28;20179;-59
2022/03/22 11:21:20;;;;;;;23.70;14.35;;;19.10;71.10;;;;;;5035338;28;20286;-59
2022/03/22 11:23:47;;;;;;;23.13;14.35;;;19.20;71.70;;;;;;5035616;28;20187;-59
2022/03/22 11:26:16;;;;;;;19.50;14.48;;;19.30;71.00;;;;;;5035445;28;20175;-59
2022/03/22 11:28:42;;;;;;;19.13;14.23;;;19.40;69.60;;;;;;5035324;28;20172;-59
2022/03/22 11:31:13;;;;;;;19.40;13.88;;;19.20;70.30;;;;;;5035324;28;20176;-59
2022/03/22 11:36:28;;;;;;;23.88;14.27;;;19.30;70.70;;;;;;5035452;28;20230;-59
2022/03/22 11:38:58;;;;;;;18.85;12.52;;;19.30;66.70;;;;;;5035190;28;20164;-59
2022/03/22 11:44:35;;;;;;;20.10;13.13;;;19.50;65.00;;;;;;5035021;28;20226;-60
2022/03/22 11:47:02;;;;;;;19.88;13.20;;;19.40;64.70;;;;;;5035177;28;20544;-59
2022/03/22 11:49:28;;;;;;;20.13;14.10;;;19.30;64.40;;;;;;5035042;28;20168;-59
2022/03/22 11:51:55;;;;;;;20.00;12.75;;;19.30;63.00;;;;;;5034813;28;20198;-59
2022/03/22 11:54:22;;;;;;;17.98;11.90;;;19.50;60.90;;;;;;5034813;28;20207;-59
2022/03/22 11:56:51;;;;;;;19.80;11.07;;;19.50;60.30;;;;;;5034678;28;20200;-59
2022/03/22 11:59:19;;;;;;;18.83;12.30;;;19.60;60.10;;;;;;5034911;28;20172;-59
2022/03/22 12:01:59;;;;;;;19.42;13.88;;;19.60;61.30;;;;;;5034547;28;20214;-58
2022/03/22 12:04:43;;;;;;;16.35;10.70;;;19.60;61.60;;;;;;5034764;28;20637;-59
2022/03/22 12:07:11;;;;;;;17.85;10.70;;;19.70;57.70;;;;;;5034525;28;20716;-59
2022/03/22 12:09:43;;;;;;;14.20;10.02;;;19.80;58.80;;;;;;5034695;28;20176;-59
2022/03/22 12:12:13;;;;;;;12.55;9.05;;;19.80;57.50;;;;;;5034556;28;20183;-60
2022/03/22 12:14:40;;;;;;;12.68;8.35;;;19.90;55.70;;;;;;5034593;28;20164;-59
2022/03/22 12:17:06;;;;;;;12.75;8.27;;;19.90;55.50;;;;;;5034404;28;20649;-59
2022/03/22 12:19:34;;;;;;;14.32;9.52;;;19.80;54.80;;;;;;5034286;28;20184;-59
2022/03/22 12:22:01;;;;;;;12.52;9.13;;;19.90;56.60;;;;;;5034017;28;20207;-59
2022/03/22 12:24:33;;;;;;;13.88;8.40;;;19.90;56.20;;;;;;5034325;28;20180;-60
2022/03/22 12:27:00;;;;;;;15.43;9.50;;;20.10;56.70;;;;;;5034343;28;20540;-59
2022/03/22 12:29:26;;;;;;;13.60;9.00;;;19.90;55.30;;;;;;5034160;28;20596;-59
2022/03/22 12:31:54;;;;;;;15.15;9.88;;;20.00;56.20;;;;;;5034189;28;20230;-59
2022/03/22 12:34:27;;;;;;;12.55;9.15;;;19.90;57.60;;;;;;5034011;28;20594;-59
2022/03/22 12:36:53;;;;;;;14.55;9.45;;;19.70;55.20;;;;;;5034184;28;20198;-59
2022/03/22 12:39:19;;;;;;;13.25;9.27;;;19.80;55.40;;;;;;5034162;28;20221;-59
2022/03/22 12:41:46;;;;;;;14.77;9.85;;;19.90;56.80;;;;;;5033848;28;20699;-59
2022/03/22 12:44:12;;;;;;;13.45;10.02;;;19.80;55.30;;;;;;5033758;28;20656;-59
2022/03/22 12:46:39;;;;;;;15.75;9.27;;;19.80;57.00;;;;;;5033745;28;20215;-59
2022/03/22 12:49:05;;;;;;;12.02;9.02;;;19.90;55.80;;;;;;5034065;28;20176;-60
2022/03/22 12:51:31;;;;;;;11.52;8.57;;;19.80;54.60;;;;;;5033950;28;20652;-60
2022/03/22 12:54:01;;;;;;;9.90;7.80;;;19.90;54.60;;;;;;5033698;28;20234;-59
2022/03/22 12:56:27;;;;;;;15.05;9.32;;;19.90;55.20;;;;;;5033741;28;20226;-59
2022/03/22 12:58:55;;;;;;;13.20;9.02;;;20.10;55.00;;;;;;5033639;28;20643;-60
2022/03/22 13:01:21;;;;;;;10.95;9.00;;;19.90;53.10;;;;;;5033417;28;20294;-60
2022/03/22 13:03:47;;;;;;;13.38;8.70;;;19.80;55.20;;;;;;5033802;28;20295;-59
2022/03/22 13:06:13;;;;;;;14.07;9.27;;;19.90;54.40;;;;;;5033593;28;20176;-59